Fairhope, AL (36532)

11:38 AM CDT on August 31, 2016 (GMT -0500)
Fairhope - River Mill | | Change Station

Elev 121 ft 30.52 °N, 87.85 °W | Updated 1 second ago

Clear
Clear
87.6 °F
Feels Like 84 °F
N
1.3
Wind Variable Wind from NE
Gusts 2.5 mph

Today
High -- | Low -- °F
--% Chance of Precip.
Yesterday
High -- | Low -- °F
Precip. -- in
Pressure 29.89 in
Visibility 10.0 miles
Clouds Clear
Heat Index 84 °F
Dew Point 44 °F
Humidity 22%
Rainfall 0.00 in
Snow Depth Not available.
6:27 AM 7:14 PM
Waning Crescent, 0% visible
METAR KCQF 311615Z AUTO 05009KT 10SM CLR 29/23 A2989 RMK AO2
Pressure 29.89 in
Visibility 10.0 miles
Clouds Clear
Heat Index 84 °F
Dew Point 44 °F
Humidity 22%
Rainfall 0.00 in
Snow Depth Not available.
6:27 AM 7:14 PM
Waning Crescent, 0% visible
METAR KCQF 311615Z AUTO 05009KT 10SM CLR 29/23 A2989 RMK AO2

10-Day Weather Forecast

Almanac

Astronomy

Aug. 31, 2016 Rise Set
Actual Time
Civil Twilight
Nautical Twilight
Astronomical Twilight
Moon
Length of Visible Light
Length of Day
Tomorrow will be .
, % of the Moon is Illuminated

Today's Extremes

State Highs State Lows

Community

WunderPhotos

Upload Photos

1,936,115 photos uploaded!

WunderBlog® & News

Nearby

Air Quality

  Air Quality AQ Index Pollutant
Not available.

Snow Depth

Station Depth Elevation

Earthquake Activity

City Distance Mag. Time & Date
Minimum magnitude displayed is 2.5.

Coastal Water Temperatures

Place Temperature

Stations

Nearby Weather Stations

Station Location Temp. Windchill Dew Point Humidity Wind Precip. Elev Updated Type
                   

Watches & Warnings

There are currently no watches in effect.